sensor_id;sensor_type;location;lat;lon;timestamp;temperature;humidity
21261;DHT22;10788;47.930;9.766;2023-03-03T00:02:03;0.80;99.90
21261;DHT22;10788;47.930;9.766;2023-03-03T00:04:29;0.80;99.90
21261;DHT22;10788;47.930;9.766;2023-03-03T00:06:55;0.80;99.90
21261;DHT22;10788;47.930;9.766;2023-03-03T00:09:20;0.80;99.90
21261;DHT22;10788;47.930;9.766;2023-03-03T00:11:49;0.90;99.90
21261;DHT22;10788;47.930;9.766;2023-03-03T00:14:25;0.80;99.90
21261;DHT22;10788;47.930;9.766;2023-03-03T00:16:53;0.90;99.90
21261;DHT22;10788;47.930;9.766;2023-03-03T00:19:20;0.90;99.90
21261;DHT22;10788;47.930;9.766;2023-03-03T00:21:48;0.90;99.90
21261;DHT22;10788;47.930;9.766;2023-03-03T00:26:41;0.90;99.90
21261;DHT22;10788;47.930;9.766;2023-03-03T00:29:26;0.90;99.90
21261;DHT22;10788;47.930;9.766;2023-03-03T00:31:52;0.90;99.90
21261;DHT22;10788;47.930;9.766;2023-03-03T00:34:25;0.90;99.90
21261;DHT22;10788;47.930;9.766;2023-03-03T00:36:55;0.90;99.90
21261;DHT22;10788;47.930;9.766;2023-03-03T00:39:35;0.90;99.90
21261;DHT22;10788;47.930;9.766;2023-03-03T00:42:08;0.90;99.90
21261;DHT22;10788;47.930;9.766;2023-03-03T00:49:54;0.90;99.90
21261;DHT22;10788;47.930;9.766;2023-03-03T00:52:19;0.90;99.90
21261;DHT22;10788;47.930;9.766;2023-03-03T00:54:46;0.90;99.90
21261;DHT22;10788;47.930;9.766;2023-03-03T00:57:12;0.90;99.90
21261;DHT22;10788;47.930;9.766;2023-03-03T00:59:38;1.00;99.90
21261;DHT22;10788;47.930;9.766;2023-03-03T01:02:04;1.00;99.90
21261;DHT22;10788;47.930;9.766;2023-03-03T01:04:30;1.00;99.90
21261;DHT22;10788;47.930;9.766;2023-03-03T01:06:55;1.00;99.90
21261;DHT22;10788;47.930;9.766;2023-03-03T01:09:21;1.00;99.90
21261;DHT22;10788;47.930;9.766;2023-03-03T01:11:47;1.00;99.90
21261;DHT22;10788;47.930;9.766;2023-03-03T01:14:13;1.00;99.90
21261;DHT22;10788;47.930;9.766;2023-03-03T01:16:38;1.00;99.90
21261;DHT22;10788;47.930;9.766;2023-03-03T01:19:06;1.00;99.90
21261;DHT22;10788;47.930;9.766;2023-03-03T01:21:32;1.00;99.90
21261;DHT22;10788;47.930;9.766;2023-03-03T01:23:58;1.00;99.90
21261;DHT22;10788;47.930;9.766;2023-03-03T01:26:23;1.00;99.90
21261;DHT22;10788;47.930;9.766;2023-03-03T01:28:49;1.00;99.90
21261;DHT22;10788;47.930;9.766;2023-03-03T01:31:15;1.00;99.90
21261;DHT22;10788;47.930;9.766;2023-03-03T01:33:41;1.00;99.90
21261;DHT22;10788;47.930;9.766;2023-03-03T01:36:06;1.00;99.90
21261;DHT22;10788;47.930;9.766;2023-03-03T01:38:35;1.00;99.90
21261;DHT22;10788;47.930;9.766;2023-03-03T01:41:01;1.00;99.90
21261;DHT22;10788;47.930;9.766;2023-03-03T01:43:31;1.00;99.90
21261;DHT22;10788;47.930;9.766;2023-03-03T01:48:38;1.00;99.90
21261;DHT22;10788;47.930;9.766;2023-03-03T01:51:22;1.00;99.90
21261;DHT22;10788;47.930;9.766;2023-03-03T01:53:52;1.00;99.90
21261;DHT22;10788;47.930;9.766;2023-03-03T01:56:18;1.00;99.90
21261;DHT22;10788;47.930;9.766;2023-03-03T01:58:59;1.00;99.90
21261;DHT22;10788;47.930;9.766;2023-03-03T02:01:28;1.00;99.90
21261;DHT22;10788;47.930;9.766;2023-03-03T02:03:54;1.00;99.90
21261;DHT22;10788;47.930;9.766;2023-03-03T02:06:24;1.10;99.90
21261;DHT22;10788;47.930;9.766;2023-03-03T02:11:41;1.00;99.90
21261;DHT22;10788;47.930;9.766;2023-03-03T02:14:10;1.00;99.90
21261;DHT22;10788;47.930;9.766;2023-03-03T02:16:36;1.00;99.90
21261;DHT22;10788;47.930;9.766;2023-03-03T02:19:04;1.00;99.90
21261;DHT22;10788;47.930;9.766;2023-03-03T02:21:32;1.00;99.90
21261;DHT22;10788;47.930;9.766;2023-03-03T02:24:17;1.00;99.90
21261;DHT22;10788;47.930;9.766;2023-03-03T02:26:45;1.00;99.90
21261;DHT22;10788;47.930;9.766;2023-03-03T02:29:10;1.00;99.90
21261;DHT22;10788;47.930;9.766;2023-03-03T02:31:37;1.00;99.90
21261;DHT22;10788;47.930;9.766;2023-03-03T02:34:03;0.90;99.90
21261;DHT22;10788;47.930;9.766;2023-03-03T02:36:32;0.90;99.90
21261;DHT22;10788;47.930;9.766;2023-03-03T02:41:49;0.90;99.90
21261;DHT22;10788;47.930;9.766;2023-03-03T02:44:23;0.90;99.90
21261;DHT22;10788;47.930;9.766;2023-03-03T02:46:50;0.90;99.90
21261;DHT22;10788;47.930;9.766;2023-03-03T02:49:20;0.90;99.90
21261;DHT22;10788;47.930;9.766;2023-03-03T02:51:46;0.90;99.90
21261;DHT22;10788;47.930;9.766;2023-03-03T02:54:13;0.90;99.90
21261;DHT22;10788;47.930;9.766;2023-03-03T02:56:39;0.90;99.90
21261;DHT22;10788;47.930;9.766;2023-03-03T02:59:05;0.80;99.90
21261;DHT22;10788;47.930;9.766;2023-03-03T03:01:32;0.80;99.90
21261;DHT22;10788;47.930;9.766;2023-03-03T03:04:07;0.80;99.90
21261;DHT22;10788;47.930;9.766;2023-03-03T03:06:33;0.80;99.90
21261;DHT22;10788;47.930;9.766;2023-03-03T03:08:59;0.70;99.90
21261;DHT22;10788;47.930;9.766;2023-03-03T03:11:25;0.70;99.90
21261;DHT22;10788;47.930;9.766;2023-03-03T03:13:51;0.60;99.90
21261;DHT22;10788;47.930;9.766;2023-03-03T03:16:17;0.60;99.90
21261;DHT22;10788;47.930;9.766;2023-03-03T03:18:43;0.60;99.90
21261;DHT22;10788;47.930;9.766;2023-03-03T03:21:10;0.60;99.90
21261;DHT22;10788;47.930;9.766;2023-03-03T03:23:36;0.60;99.90
21261;DHT22;10788;47.930;9.766;2023-03-03T03:26:02;0.60;99.90
21261;DHT22;10788;47.930;9.766;2023-03-03T03:28:28;0.50;99.90
21261;DHT22;10788;47.930;9.766;2023-03-03T03:30:54;0.60;99.90
21261;DHT22;10788;47.930;9.766;2023-03-03T03:33:20;0.50;99.90
21261;DHT22;10788;47.930;9.766;2023-03-03T03:35:45;0.60;99.90
21261;DHT22;10788;47.930;9.766;2023-03-03T03:38:13;0.50;99.90
21261;DHT22;10788;47.930;9.766;2023-03-03T03:40:39;0.50;99.90
21261;DHT22;10788;47.930;9.766;2023-03-03T03:43:05;0.40;99.90
21261;DHT22;10788;47.930;9.766;2023-03-03T03:45:31;0.50;99.90
21261;DHT22;10788;47.930;9.766;2023-03-03T03:47:57;0.50;99.90
21261;DHT22;10788;47.930;9.766;2023-03-03T03:50:22;0.50;99.90
21261;DHT22;10788;47.930;9.766;2023-03-03T03:52:49;0.50;99.90
21261;DHT22;10788;47.930;9.766;2023-03-03T03:55:15;0.50;99.90
21261;DHT22;10788;47.930;9.766;2023-03-03T03:57:41;0.50;99.90
21261;DHT22;10788;47.930;9.766;2023-03-03T04:00:08;0.50;99.90
21261;DHT22;10788;47.930;9.766;2023-03-03T04:02:35;0.40;99.90
21261;DHT22;10788;47.930;9.766;2023-03-03T04:05:00;0.50;99.90
21261;DHT22;10788;47.930;9.766;2023-03-03T04:07:26;0.60;99.90
21261;DHT22;10788;47.930;9.766;2023-03-03T04:09:52;0.50;99.90
21261;DHT22;10788;47.930;9.766;2023-03-03T04:12:18;0.60;99.90
21261;DHT22;10788;47.930;9.766;2023-03-03T04:14:44;0.60;99.90
21261;DHT22;10788;47.930;9.766;2023-03-03T04:17:18;0.60;99.90
21261;DHT22;10788;47.930;9.766;2023-03-03T04:19:44;0.60;99.90
21261;DHT22;10788;47.930;9.766;2023-03-03T04:22:11;0.60;99.90
21261;DHT22;10788;47.930;9.766;2023-03-03T04:24:38;0.60;99.90
21261;DHT22;10788;47.930;9.766;2023-03-03T04:27:04;0.60;99.90
21261;DHT22;10788;47.930;9.766;2023-03-03T04:29:30;0.70;99.90
21261;DHT22;10788;47.930;9.766;2023-03-03T04:31:56;0.70;99.90
21261;DHT22;10788;47.930;9.766;2023-03-03T04:34:21;0.70;99.90
21261;DHT22;10788;47.930;9.766;2023-03-03T04:36:47;0.70;99.90
21261;DHT22;10788;47.930;9.766;2023-03-03T04:39:13;0.70;99.90
21261;DHT22;10788;47.930;9.766;2023-03-03T04:41:38;0.70;99.90
21261;DHT22;10788;47.930;9.766;2023-03-03T04:44:04;0.70;99.90
21261;DHT22;10788;47.930;9.766;2023-03-03T04:46:29;0.70;99.90
21261;DHT22;10788;47.930;9.766;2023-03-03T04:48:55;0.70;99.90
21261;DHT22;10788;47.930;9.766;2023-03-03T04:51:21;0.70;99.90
21261;DHT22;10788;47.930;9.766;2023-03-03T04:53:47;0.70;99.90
21261;DHT22;10788;47.930;9.766;2023-03-03T04:56:13;0.70;99.90
21261;DHT22;10788;47.930;9.766;2023-03-03T04:58:39;0.70;99.90
21261;DHT22;10788;47.930;9.766;2023-03-03T05:01:04;0.70;99.90
21261;DHT22;10788;47.930;9.766;2023-03-03T05:03:30;0.70;99.90
21261;DHT22;10788;47.930;9.766;2023-03-03T05:05:55;0.70;99.90
21261;DHT22;10788;47.930;9.766;2023-03-03T05:08:21;0.70;99.90
21261;DHT22;10788;47.930;9.766;2023-03-03T05:10:51;0.70;99.90
21261;DHT22;10788;47.930;9.766;2023-03-03T05:13:17;0.70;99.90
21261;DHT22;10788;47.930;9.766;2023-03-03T05:15:47;0.70;99.90
21261;DHT22;10788;47.930;9.766;2023-03-03T05:18:13;0.70;99.90
21261;DHT22;10788;47.930;9.766;2023-03-03T05:20:39;0.70;99.90
21261;DHT22;10788;47.930;9.766;2023-03-03T05:23:05;0.70;99.90
21261;DHT22;10788;47.930;9.766;2023-03-03T05:25:31;0.80;99.90
21261;DHT22;10788;47.930;9.766;2023-03-03T05:27:57;0.70;99.90
21261;DHT22;10788;47.930;9.766;2023-03-03T05:30:22;0.70;99.90
21261;DHT22;10788;47.930;9.766;2023-03-03T05:32:48;0.70;99.90
21261;DHT22;10788;47.930;9.766;2023-03-03T05:35:14;0.70;99.90
21261;DHT22;10788;47.930;9.766;2023-03-03T05:37:40;0.70;99.90
21261;DHT22;10788;47.930;9.766;2023-03-03T05:40:11;0.70;99.90
21261;DHT22;10788;47.930;9.766;2023-03-03T05:42:37;0.70;99.90
21261;DHT22;10788;47.930;9.766;2023-03-03T05:45:03;0.70;99.90
21261;DHT22;10788;47.930;9.766;2023-03-03T05:47:29;0.70;99.90
21261;DHT22;10788;47.930;9.766;2023-03-03T05:49:54;0.70;99.90
21261;DHT22;10788;47.930;9.766;2023-03-03T05:52:20;0.80;99.90
21261;DHT22;10788;47.930;9.766;2023-03-03T05:54:46;0.80;99.90
21261;DHT22;10788;47.930;9.766;2023-03-03T05:57:11;0.80;99.90
21261;DHT22;10788;47.930;9.766;2023-03-03T05:59:37;0.80;99.90
21261;DHT22;10788;47.930;9.766;2023-03-03T06:02:03;0.80;99.90
21261;DHT22;10788;47.930;9.766;2023-03-03T06:04:28;0.80;99.90
21261;DHT22;10788;47.930;9.766;2023-03-03T06:06:54;0.80;99.90
21261;DHT22;10788;47.930;9.766;2023-03-03T06:09:19;0.80;99.90
21261;DHT22;10788;47.930;9.766;2023-03-03T06:11:45;0.80;99.90
21261;DHT22;10788;47.930;9.766;2023-03-03T06:14:11;0.80;99.90
21261;DHT22;10788;47.930;9.766;2023-03-03T06:16:36;0.80;99.90
21261;DHT22;10788;47.930;9.766;2023-03-03T06:19:02;0.80;99.90
21261;DHT22;10788;47.930;9.766;2023-03-03T06:21:27;0.80;99.90
21261;DHT22;10788;47.930;9.766;2023-03-03T06:23:53;0.80;99.90
21261;DHT22;10788;47.930;9.766;2023-03-03T06:26:19;0.90;99.90
21261;DHT22;10788;47.930;9.766;2023-03-03T06:28:44;0.90;99.90
21261;DHT22;10788;47.930;9.766;2023-03-03T06:31:10;0.90;99.90
21261;DHT22;10788;47.930;9.766;2023-03-03T06:33:36;0.90;99.90
21261;DHT22;10788;47.930;9.766;2023-03-03T06:36:02;0.90;99.90
21261;DHT22;10788;47.930;9.766;2023-03-03T06:38:28;0.90;99.90
21261;DHT22;10788;47.930;9.766;2023-03-03T06:40:54;0.90;99.90
21261;DHT22;10788;47.930;9.766;2023-03-03T06:43:19;0.90;99.90
21261;DHT22;10788;47.930;9.766;2023-03-03T06:45:45;0.90;99.90
21261;DHT22;10788;47.930;9.766;2023-03-03T06:48:11;0.90;99.90
21261;DHT22;10788;47.930;9.766;2023-03-03T06:50:36;0.90;99.90
21261;DHT22;10788;47.930;9.766;2023-03-03T06:53:11;0.90;99.90
21261;DHT22;10788;47.930;9.766;2023-03-03T06:55:37;0.90;99.90
21261;DHT22;10788;47.930;9.766;2023-03-03T06:58:20;1.00;99.90
21261;DHT22;10788;47.930;9.766;2023-03-03T07:00:56;1.00;99.90
21261;DHT22;10788;47.930;9.766;2023-03-03T07:03:24;1.00;99.90
21261;DHT22;10788;47.930;9.766;2023-03-03T07:05:50;1.00;99.90
21261;DHT22;10788;47.930;9.766;2023-03-03T07:08:19;1.10;99.90
21261;DHT22;10788;47.930;9.766;2023-03-03T07:10:47;1.00;99.90
21261;DHT22;10788;47.930;9.766;2023-03-03T07:13:24;1.00;99.90
21261;DHT22;10788;47.930;9.766;2023-03-03T07:15:55;1.00;99.90
21261;DHT22;10788;47.930;9.766;2023-03-03T07:18:50;1.10;99.90
21261;DHT22;10788;47.930;9.766;2023-03-03T07:23:50;1.10;99.90
21261;DHT22;10788;47.930;9.766;2023-03-03T07:26:22;1.10;99.90
21261;DHT22;10788;47.930;9.766;2023-03-03T07:33:54;1.00;99.90
21261;DHT22;10788;47.930;9.766;2023-03-03T07:36:34;1.10;99.90
21261;DHT22;10788;47.930;9.766;2023-03-03T07:39:03;1.00;99.90
21261;DHT22;10788;47.930;9.766;2023-03-03T07:41:32;1.00;99.90
21261;DHT22;10788;47.930;9.766;2023-03-03T07:44:21;1.00;99.90
21261;DHT22;10788;47.930;9.766;2023-03-03T07:46:50;1.10;99.90
21261;DHT22;10788;47.930;9.766;2023-03-03T07:49:33;1.10;99.90
21261;DHT22;10788;47.930;9.766;2023-03-03T07:52:00;1.20;99.90
21261;DHT22;10788;47.930;9.766;2023-03-03T07:54:37;1.20;99.90
21261;DHT22;10788;47.930;9.766;2023-03-03T07:59:38;1.30;99.90
21261;DHT22;10788;47.930;9.766;2023-03-03T08:04:47;1.30;99.90
21261;DHT22;10788;47.930;9.766;2023-03-03T08:07:19;1.40;99.90
21261;DHT22;10788;47.930;9.766;2023-03-03T08:09:59;1.40;99.90
21261;DHT22;10788;47.930;9.766;2023-03-03T08:17:41;1.60;99.90
21261;DHT22;10788;47.930;9.766;2023-03-03T08:22:54;1.60;99.90
21261;DHT22;10788;47.930;9.766;2023-03-03T08:25:20;1.70;99.90
21261;DHT22;10788;47.930;9.766;2023-03-03T08:27:46;1.60;99.90
21261;DHT22;10788;47.930;9.766;2023-03-03T08:30:12;1.70;99.90
21261;DHT22;10788;47.930;9.766;2023-03-03T08:32:37;1.70;99.90
21261;DHT22;10788;47.930;9.766;2023-03-03T08:35:03;1.70;99.90
21261;DHT22;10788;47.930;9.766;2023-03-03T08:37:29;1.70;99.90
21261;DHT22;10788;47.930;9.766;2023-03-03T08:39:54;1.70;99.90
21261;DHT22;10788;47.930;9.766;2023-03-03T08:42:20;1.70;99.90
21261;DHT22;10788;47.930;9.766;2023-03-03T08:44:45;1.80;99.90
21261;DHT22;10788;47.930;9.766;2023-03-03T08:47:11;1.80;99.90
21261;DHT22;10788;47.930;9.766;2023-03-03T08:49:37;1.80;99.90
21261;DHT22;10788;47.930;9.766;2023-03-03T08:52:02;1.90;99.90
21261;DHT22;10788;47.930;9.766;2023-03-03T08:54:28;1.90;99.90
21261;DHT22;10788;47.930;9.766;2023-03-03T08:56:54;2.00;99.90
21261;DHT22;10788;47.930;9.766;2023-03-03T08:59:20;2.00;99.90
21261;DHT22;10788;47.930;9.766;2023-03-03T09:01:46;2.00;99.90
21261;DHT22;10788;47.930;9.766;2023-03-03T09:04:12;2.00;99.90
21261;DHT22;10788;47.930;9.766;2023-03-03T09:06:38;2.10;99.90
21261;DHT22;10788;47.930;9.766;2023-03-03T09:09:04;2.20;99.90
21261;DHT22;10788;47.930;9.766;2023-03-03T09:11:30;2.30;99.90
21261;DHT22;10788;47.930;9.766;2023-03-03T09:14:17;2.30;99.90
21261;DHT22;10788;47.930;9.766;2023-03-03T09:16:51;2.30;99.90
21261;DHT22;10788;47.930;9.766;2023-03-03T09:19:30;2.30;99.90
21261;DHT22;10788;47.930;9.766;2023-03-03T09:22:23;2.40;99.90
21261;DHT22;10788;47.930;9.766;2023-03-03T09:24:53;2.40;99.90
21261;DHT22;10788;47.930;9.766;2023-03-03T09:27:27;2.40;99.90
21261;DHT22;10788;47.930;9.766;2023-03-03T09:29:53;2.40;99.90
21261;DHT22;10788;47.930;9.766;2023-03-03T09:32:36;2.50;99.90
21261;DHT22;10788;47.930;9.766;2023-03-03T09:35:39;2.50;99.90
21261;DHT22;10788;47.930;9.766;2023-03-03T09:46:43;2.60;99.90
21261;DHT22;10788;47.930;9.766;2023-03-03T09:49:35;2.60;99.90
21261;DHT22;10788;47.930;9.766;2023-03-03T10:05:57;2.80;99.90
21261;DHT22;10788;47.930;9.766;2023-03-03T10:19:11;2.80;99.90
21261;DHT22;10788;47.930;9.766;2023-03-03T10:24:43;2.80;99.90
21261;DHT22;10788;47.930;9.766;2023-03-03T10:33:11;2.90;99.90
21261;DHT22;10788;47.930;9.766;2023-03-03T10:38:46;3.00;99.90
21261;DHT22;10788;47.930;9.766;2023-03-03T10:58:06;3.00;99.90
21261;DHT22;10788;47.930;9.766;2023-03-03T11:00:55;3.00;99.90
21261;DHT22;10788;47.930;9.766;2023-03-03T11:09:02;3.10;99.90
21261;DHT22;10788;47.930;9.766;2023-03-03T11:14:02;3.20;99.90
21261;DHT22;10788;47.930;9.766;2023-03-03T11:24:41;3.40;99.90
21261;DHT22;10788;47.930;9.766;2023-03-03T11:33:05;3.60;99.90
21261;DHT22;10788;47.930;9.766;2023-03-03T11:35:56;3.70;99.90
21261;DHT22;10788;47.930;9.766;2023-03-03T11:38:42;3.70;99.90
21261;DHT22;10788;47.930;9.766;2023-03-03T11:44:14;3.80;99.90
21261;DHT22;10788;47.930;9.766;2023-03-03T11:49:35;3.90;99.90
21261;DHT22;10788;47.930;9.766;2023-03-03T11:55:26;4.00;99.90
21261;DHT22;10788;47.930;9.766;2023-03-03T12:01:18;4.10;99.90
21261;DHT22;10788;47.930;9.766;2023-03-03T12:03:59;4.20;99.90
21261;DHT22;10788;47.930;9.766;2023-03-03T12:12:32;4.50;99.90
21261;DHT22;10788;47.930;9.766;2023-03-03T12:20:58;4.80;99.90
21261;DHT22;10788;47.930;9.766;2023-03-03T12:28:36;4.60;99.90
21261;DHT22;10788;47.930;9.766;2023-03-03T12:33:57;4.80;99.90
21261;DHT22;10788;47.930;9.766;2023-03-03T12:39:23;4.80;99.90
21261;DHT22;10788;47.930;9.766;2023-03-03T12:42:13;5.00;99.90
21261;DHT22;10788;47.930;9.766;2023-03-03T12:44:48;5.00;99.90
21261;DHT22;10788;47.930;9.766;2023-03-03T13:14:43;5.70;99.90
21261;DHT22;10788;47.930;9.766;2023-03-03T13:17:32;5.70;99.90
21261;DHT22;10788;47.930;9.766;2023-03-03T13:20:04;5.80;99.90
21261;DHT22;10788;47.930;9.766;2023-03-03T13:22:32;5.80;99.90
21261;DHT22;10788;47.930;9.766;2023-03-03T13:25:17;5.90;99.90
21261;DHT22;10788;47.930;9.766;2023-03-03T13:27:49;6.00;99.90
21261;DHT22;10788;47.930;9.766;2023-03-03T13:30:22;6.20;99.90
21261;DHT22;10788;47.930;9.766;2023-03-03T13:33:01;6.00;99.90
21261;DHT22;10788;47.930;9.766;2023-03-03T13:35:45;5.90;99.90
21261;DHT22;10788;47.930;9.766;2023-03-03T13:38:35;5.90;99.90
21261;DHT22;10788;47.930;9.766;2023-03-03T13:41:25;5.80;99.90
21261;DHT22;10788;47.930;9.766;2023-03-03T13:44:11;5.90;99.90
21261;DHT22;10788;47.930;9.766;2023-03-03T13:46:45;5.90;99.90
21261;DHT22;10788;47.930;9.766;2023-03-03T13:52:22;5.90;99.90
21261;DHT22;10788;47.930;9.766;2023-03-03T13:54:52;5.90;99.90
21261;DHT22;10788;47.930;9.766;2023-03-03T13:57:44;6.00;99.90
21261;DHT22;10788;47.930;9.766;2023-03-03T14:00:51;6.10;99.90
21261;DHT22;10788;47.930;9.766;2023-03-03T14:06:04;6.10;99.90
21261;DHT22;10788;47.930;9.766;2023-03-03T14:17:02;6.30;99.90
21261;DHT22;10788;47.930;9.766;2023-03-03T14:19:39;6.30;99.90
21261;DHT22;10788;47.930;9.766;2023-03-03T14:25:03;6.40;99.90
21261;DHT22;10788;47.930;9.766;2023-03-03T14:33:15;6.40;99.90
21261;DHT22;10788;47.930;9.766;2023-03-03T14:38:37;6.40;99.90
21261;DHT22;10788;47.930;9.766;2023-03-03T14:41:17;6.40;99.90
21261;DHT22;10788;47.930;9.766;2023-03-03T14:43:58;6.50;99.90
21261;DHT22;10788;47.930;9.766;2023-03-03T14:46:34;6.50;99.90
21261;DHT22;10788;47.930;9.766;2023-03-03T14:49:03;6.50;99.90
21261;DHT22;10788;47.930;9.766;2023-03-03T14:51:45;6.50;99.90
21261;DHT22;10788;47.930;9.766;2023-03-03T14:54:27;6.60;99.90
21261;DHT22;10788;47.930;9.766;2023-03-03T15:00:07;6.50;99.90
21261;DHT22;10788;47.930;9.766;2023-03-03T15:07:39;6.60;99.90
21261;DHT22;10788;47.930;9.766;2023-03-03T15:10:06;6.60;99.90
21261;DHT22;10788;47.930;9.766;2023-03-03T15:17:35;6.70;99.90
21261;DHT22;10788;47.930;9.766;2023-03-03T15:22:50;6.60;99.90
21261;DHT22;10788;47.930;9.766;2023-03-03T15:30:56;6.60;99.90
21261;DHT22;10788;47.930;9.766;2023-03-03T15:33:46;6.60;99.90
21261;DHT22;10788;47.930;9.766;2023-03-03T15:36:44;6.70;99.90
21261;DHT22;10788;47.930;9.766;2023-03-03T15:42:04;6.70;99.90
21261;DHT22;10788;47.930;9.766;2023-03-03T15:50:43;6.70;99.90
21261;DHT22;10788;47.930;9.766;2023-03-03T16:05:00;6.80;99.90
21261;DHT22;10788;47.930;9.766;2023-03-03T16:10:30;6.70;99.90
21261;DHT22;10788;47.930;9.766;2023-03-03T16:27:12;6.70;99.90
21261;DHT22;10788;47.930;9.766;2023-03-03T16:32:16;6.60;99.90
21261;DHT22;10788;47.930;9.766;2023-03-03T16:42:30;6.40;99.90
21261;DHT22;10788;47.930;9.766;2023-03-03T16:45:14;6.40;99.90
21261;DHT22;10788;47.930;9.766;2023-03-03T16:53:03;6.30;99.90
21261;DHT22;10788;47.930;9.766;2023-03-03T16:55:41;6.20;99.90
21261;DHT22;10788;47.930;9.766;2023-03-03T17:06:32;6.10;99.90
21261;DHT22;10788;47.930;9.766;2023-03-03T17:17:24;5.80;99.90
21261;DHT22;10788;47.930;9.766;2023-03-03T17:26:16;5.60;99.90
21261;DHT22;10788;47.930;9.766;2023-03-03T17:28:51;5.60;99.90
21261;DHT22;10788;47.930;9.766;2023-03-03T17:39:57;5.50;99.90
21261;DHT22;10788;47.930;9.766;2023-03-03T17:43:02;5.50;99.90
21261;DHT22;10788;47.930;9.766;2023-03-03T17:45:34;5.50;99.90
21261;DHT22;10788;47.930;9.766;2023-03-03T17:51:23;5.70;99.90
21261;DHT22;10788;47.930;9.766;2023-03-03T17:54:17;5.60;99.90
21261;DHT22;10788;47.930;9.766;2023-03-03T18:13:02;5.30;99.90
21261;DHT22;10788;47.930;9.766;2023-03-03T18:37:01;5.20;99.90
21261;DHT22;10788;47.930;9.766;2023-03-03T18:39:47;5.20;99.90
21261;DHT22;10788;47.930;9.766;2023-03-03T18:44:50;5.20;99.90
21261;DHT22;10788;47.930;9.766;2023-03-03T18:47:16;5.20;99.90
21261;DHT22;10788;47.930;9.766;2023-03-03T18:52:30;5.10;99.90
21261;DHT22;10788;47.930;9.766;2023-03-03T18:57:38;5.20;99.90
21261;DHT22;10788;47.930;9.766;2023-03-03T19:00:28;5.10;99.90
21261;DHT22;10788;47.930;9.766;2023-03-03T19:02:56;5.10;99.90
21261;DHT22;10788;47.930;9.766;2023-03-03T19:05:26;5.00;99.90
21261;DHT22;10788;47.930;9.766;2023-03-03T19:16:50;4.90;99.90
21261;DHT22;10788;47.930;9.766;2023-03-03T19:19:19;4.90;99.90
21261;DHT22;10788;47.930;9.766;2023-03-03T19:22:25;4.90;99.90
21261;DHT22;10788;47.930;9.766;2023-03-03T19:25:13;4.90;99.90
21261;DHT22;10788;47.930;9.766;2023-03-03T19:27:50;4.90;99.90
21261;DHT22;10788;47.930;9.766;2023-03-03T19:30:31;4.90;99.90
21261;DHT22;10788;47.930;9.766;2023-03-03T19:38:45;4.90;99.90
21261;DHT22;10788;47.930;9.766;2023-03-03T19:47:02;4.90;99.90
21261;DHT22;10788;47.930;9.766;2023-03-03T20:00:49;4.90;99.90
21261;DHT22;10788;47.930;9.766;2023-03-03T20:20:47;4.60;99.90
21261;DHT22;10788;47.930;9.766;2023-03-03T20:25:28;4.20;99.90
21261;DHT22;10788;47.930;9.766;2023-03-03T20:36:09;3.90;99.90
21261;DHT22;10788;47.930;9.766;2023-03-03T20:41:31;3.90;99.90
21261;DHT22;10788;47.930;9.766;2023-03-03T20:45:04;3.90;99.90
21261;DHT22;10788;47.930;9.766;2023-03-03T20:47:03;3.90;99.90
21261;DHT22;10788;47.930;9.766;2023-03-03T20:55:10;3.80;99.90
21261;DHT22;10788;47.930;9.766;2023-03-03T20:58:20;3.80;99.90
21261;DHT22;10788;47.930;9.766;2023-03-03T21:00:58;3.80;99.90
21261;DHT22;10788;47.930;9.766;2023-03-03T21:03:32;3.70;99.90
21261;DHT22;10788;47.930;9.766;2023-03-03T21:06:07;3.70;99.90
21261;DHT22;10788;47.930;9.766;2023-03-03T21:11:08;3.70;99.90
21261;DHT22;10788;47.930;9.766;2023-03-03T21:14:36;3.60;99.90
21261;DHT22;10788;47.930;9.766;2023-03-03T21:16:57;3.60;99.90
21261;DHT22;10788;47.930;9.766;2023-03-03T21:21:51;3.50;99.90
21261;DHT22;10788;47.930;9.766;2023-03-03T21:24:17;3.50;99.90
21261;DHT22;10788;47.930;9.766;2023-03-03T21:29:28;3.30;99.90
21261;DHT22;10788;47.930;9.766;2023-03-03T21:34:34;3.40;99.90
21261;DHT22;10788;47.930;9.766;2023-03-03T21:37:05;3.30;99.90
21261;DHT22;10788;47.930;9.766;2023-03-03T21:39:36;3.30;99.90
21261;DHT22;10788;47.930;9.766;2023-03-03T21:42:13;3.30;99.90
21261;DHT22;10788;47.930;9.766;2023-03-03T21:44:43;3.20;99.90
21261;DHT22;10788;47.930;9.766;2023-03-03T21:47:11;3.20;99.90
21261;DHT22;10788;47.930;9.766;2023-03-03T21:49:40;3.20;99.90
21261;DHT22;10788;47.930;9.766;2023-03-03T21:52:05;3.20;99.90
21261;DHT22;10788;47.930;9.766;2023-03-03T21:54:31;3.20;99.90
21261;DHT22;10788;47.930;9.766;2023-03-03T21:56:57;3.20;99.90
21261;DHT22;10788;47.930;9.766;2023-03-03T21:59:22;3.10;99.90
21261;DHT22;10788;47.930;9.766;2023-03-03T22:01:48;3.10;99.90
21261;DHT22;10788;47.930;9.766;2023-03-03T22:04:14;2.90;99.90
21261;DHT22;10788;47.930;9.766;2023-03-03T22:06:39;2.80;99.90
21261;DHT22;10788;47.930;9.766;2023-03-03T22:09:05;2.70;99.90
21261;DHT22;10788;47.930;9.766;2023-03-03T22:11:32;2.70;99.90
21261;DHT22;10788;47.930;9.766;2023-03-03T22:13:58;2.70;99.90
21261;DHT22;10788;47.930;9.766;2023-03-03T22:16:23;2.70;99.90
21261;DHT22;10788;47.930;9.766;2023-03-03T22:18:49;2.60;99.90
21261;DHT22;10788;47.930;9.766;2023-03-03T22:21:14;2.60;99.90
21261;DHT22;10788;47.930;9.766;2023-03-03T22:23:40;2.60;99.90
21261;DHT22;10788;47.930;9.766;2023-03-03T22:26:06;2.60;99.90
21261;DHT22;10788;47.930;9.766;2023-03-03T22:28:31;2.50;99.90
21261;DHT22;10788;47.930;9.766;2023-03-03T22:30:57;2.50;99.90
21261;DHT22;10788;47.930;9.766;2023-03-03T22:33:22;2.40;99.90
21261;DHT22;10788;47.930;9.766;2023-03-03T22:35:48;2.40;99.90
21261;DHT22;10788;47.930;9.766;2023-03-03T22:38:14;2.40;99.90
21261;DHT22;10788;47.930;9.766;2023-03-03T22:40:40;2.40;99.90
21261;DHT22;10788;47.930;9.766;2023-03-03T22:43:06;2.40;99.90
21261;DHT22;10788;47.930;9.766;2023-03-03T22:45:32;2.30;99.90
21261;DHT22;10788;47.930;9.766;2023-03-03T22:47:58;2.30;99.90
21261;DHT22;10788;47.930;9.766;2023-03-03T22:50:24;2.20;99.90
21261;DHT22;10788;47.930;9.766;2023-03-03T22:52:49;2.10;99.90
21261;DHT22;10788;47.930;9.766;2023-03-03T22:55:15;2.10;99.90
21261;DHT22;10788;47.930;9.766;2023-03-03T22:57:41;2.10;99.90
21261;DHT22;10788;47.930;9.766;2023-03-03T23:00:08;2.00;99.90
21261;DHT22;10788;47.930;9.766;2023-03-03T23:02:36;2.00;99.90
21261;DHT22;10788;47.930;9.766;2023-03-03T23:05:02;1.90;99.90
21261;DHT22;10788;47.930;9.766;2023-03-03T23:07:33;1.90;99.90
21261;DHT22;10788;47.930;9.766;2023-03-03T23:09:59;1.80;99.90
21261;DHT22;10788;47.930;9.766;2023-03-03T23:12:25;1.80;99.90
21261;DHT22;10788;47.930;9.766;2023-03-03T23:14:51;1.70;99.90
21261;DHT22;10788;47.930;9.766;2023-03-03T23:17:16;1.60;99.90
21261;DHT22;10788;47.930;9.766;2023-03-03T23:19:42;1.60;99.90
21261;DHT22;10788;47.930;9.766;2023-03-03T23:22:14;1.60;99.90
21261;DHT22;10788;47.930;9.766;2023-03-03T23:24:40;1.50;99.90
21261;DHT22;10788;47.930;9.766;2023-03-03T23:27:07;1.50;99.90
21261;DHT22;10788;47.930;9.766;2023-03-03T23:29:33;1.40;99.90